sensor_id;sensor_type;location;lat;lon;timestamp;P1;durP1;ratioP1;P2;durP2;ratioP2
38220;SDS011;24023;51.280;7.148;2023-09-12T00:00:12;5.7;;;4.4;;
38220;SDS011;24023;51.280;7.148;2023-09-12T00:05:05;5.8;;;4.5;;
38220;SDS011;24023;51.280;7.148;2023-09-12T00:10:07;5.8;;;4.5;;
38220;SDS011;24023;51.280;7.148;2023-09-12T00:15:07;5.7;;;4.3;;
38220;SDS011;24023;51.280;7.148;2023-09-12T00:20:08;5.7;;;4.3;;
38220;SDS011;24023;51.280;7.148;2023-09-12T00:25:05;5.7;;;4.3;;
38220;SDS011;24023;51.280;7.148;2023-09-12T00:30:09;5.9;;;4.1;;
38220;SDS011;24023;51.280;7.148;2023-09-12T00:35:06;4.2;;;3.4;;
38220;SDS011;24023;51.280;7.148;2023-09-12T00:40:07;4.2;;;3.4;;
38220;SDS011;24023;51.280;7.148;2023-09-12T00:45:09;4.2;;;3.4;;
38220;SDS011;24023;51.280;7.148;2023-09-12T00:50:07;4.0;;;3.0;;
38220;SDS011;24023;51.280;7.148;2023-09-12T00:55:06;4.0;;;3.0;;
38220;SDS011;24023;51.280;7.148;2023-09-12T01:00:13;3.8;;;2.9;;
38220;SDS011;24023;51.280;7.148;2023-09-12T01:05:06;3.8;;;2.9;;
38220;SDS011;24023;51.280;7.148;2023-09-12T01:10:08;3.8;;;2.9;;
38220;SDS011;24023;51.280;7.148;2023-09-12T01:15:13;3.8;;;3.4;;
38220;SDS011;24023;51.280;7.148;2023-09-12T01:20:08;3.8;;;3.4;;
38220;SDS011;24023;51.280;7.148;2023-09-12T01:25:16;3.3;;;3.0;;
38220;SDS011;24023;51.280;7.148;2023-09-12T01:30:09;3.3;;;3.0;;
38220;SDS011;24023;51.280;7.148;2023-09-12T01:35:06;3.8;;;2.5;;
38220;SDS011;24023;51.280;7.148;2023-09-12T01:40:07;3.8;;;2.5;;
38220;SDS011;24023;51.280;7.148;2023-09-12T01:45:09;3.8;;;2.5;;
38220;SDS011;24023;51.280;7.148;2023-09-12T01:50:08;2.6;;;2.4;;
38220;SDS011;24023;51.280;7.148;2023-09-12T01:55:05;2.6;;;2.4;;
38220;SDS011;24023;51.280;7.148;2023-09-12T02:00:11;4.0;;;3.1;;
38220;SDS011;24023;51.280;7.148;2023-09-12T02:05:07;5.2;;;4.7;;
38220;SDS011;24023;51.280;7.148;2023-09-12T02:10:07;5.2;;;4.7;;
38220;SDS011;24023;51.280;7.148;2023-09-12T02:15:07;9.7;;;6.9;;
38220;SDS011;24023;51.280;7.148;2023-09-12T02:20:07;9.7;;;6.9;;
38220;SDS011;24023;51.280;7.148;2023-09-12T02:25:07;7.2;;;6.5;;
38220;SDS011;24023;51.280;7.148;2023-09-12T02:30:09;7.2;;;6.5;;
38220;SDS011;24023;51.280;7.148;2023-09-12T02:35:05;7.2;;;6.5;;
38220;SDS011;24023;51.280;7.148;2023-09-12T02:40:08;8.2;;;6.4;;
38220;SDS011;24023;51.280;7.148;2023-09-12T02:45:10;8.2;;;6.4;;
38220;SDS011;24023;51.280;7.148;2023-09-12T02:50:08;8.3;;;7.2;;
38220;SDS011;24023;51.280;7.148;2023-09-12T02:55:06;8.3;;;7.2;;
38220;SDS011;24023;51.280;7.148;2023-09-12T03:00:14;8.3;;;7.2;;
38220;SDS011;24023;51.280;7.148;2023-09-12T03:05:06;7.9;;;7.1;;
38220;SDS011;24023;51.280;7.148;2023-09-12T03:10:07;7.9;;;7.1;;
38220;SDS011;24023;51.280;7.148;2023-09-12T03:15:07;9.0;;;7.5;;
38220;SDS011;24023;51.280;7.148;2023-09-12T03:20:10;9.0;;;7.5;;
38220;SDS011;24023;51.280;7.148;2023-09-12T03:25:06;11.5;;;9.9;;
38220;SDS011;24023;51.280;7.148;2023-09-12T03:30:08;11.5;;;9.9;;
38220;SDS011;24023;51.280;7.148;2023-09-12T03:35:06;10.1;;;8.3;;
38220;SDS011;24023;51.280;7.148;2023-09-12T03:40:07;10.1;;;8.3;;
38220;SDS011;24023;51.280;7.148;2023-09-12T03:45:09;7.6;;;6.3;;
38220;SDS011;24023;51.280;7.148;2023-09-12T03:50:07;7.6;;;6.3;;
38220;SDS011;24023;51.280;7.148;2023-09-12T03:55:06;6.0;;;5.0;;
38220;SDS011;24023;51.280;7.148;2023-09-12T04:00:14;6.0;;;5.0;;
38220;SDS011;24023;51.280;7.148;2023-09-12T04:05:06;6.0;;;5.0;;
38220;SDS011;24023;51.280;7.148;2023-09-12T04:10:08;7.4;;;5.5;;
38220;SDS011;24023;51.280;7.148;2023-09-12T04:15:14;7.4;;;5.5;;
38220;SDS011;24023;51.280;7.148;2023-09-12T04:20:07;6.2;;;4.7;;
38220;SDS011;24023;51.280;7.148;2023-09-12T04:25:07;6.2;;;4.7;;
38220;SDS011;24023;51.280;7.148;2023-09-12T04:30:08;6.2;;;4.7;;
38220;SDS011;24023;51.280;7.148;2023-09-12T04:35:06;5.9;;;5.0;;
38220;SDS011;24023;51.280;7.148;2023-09-12T04:40:08;5.9;;;5.0;;
38220;SDS011;24023;51.280;7.148;2023-09-12T04:45:09;7.1;;;5.5;;
38220;SDS011;24023;51.280;7.148;2023-09-12T04:50:07;7.1;;;5.5;;
38220;SDS011;24023;51.280;7.148;2023-09-12T04:55:05;7.1;;;5.5;;
38220;SDS011;24023;51.280;7.148;2023-09-12T05:00:11;6.4;;;5.4;;
38220;SDS011;24023;51.280;7.148;2023-09-12T05:05:06;6.4;;;5.4;;
38220;SDS011;24023;51.280;7.148;2023-09-12T05:10:07;6.0;;;5.1;;
38220;SDS011;24023;51.280;7.148;2023-09-12T05:15:07;6.0;;;5.1;;
38220;SDS011;24023;51.280;7.148;2023-09-12T05:20:07;5.0;;;4.5;;
38220;SDS011;24023;51.280;7.148;2023-09-12T05:25:06;7.9;;;4.6;;
38220;SDS011;24023;51.280;7.148;2023-09-12T05:30:09;7.9;;;4.6;;
38220;SDS011;24023;51.280;7.148;2023-09-12T05:35:06;7.9;;;4.6;;
38220;SDS011;24023;51.280;7.148;2023-09-12T05:40:07;7.4;;;4.9;;
38220;SDS011;24023;51.280;7.148;2023-09-12T05:45:09;7.4;;;4.9;;
38220;SDS011;24023;51.280;7.148;2023-09-12T05:50:07;7.6;;;5.3;;
38220;SDS011;24023;51.280;7.148;2023-09-12T05:55:06;7.6;;;5.3;;
38220;SDS011;24023;51.280;7.148;2023-09-12T06:00:12;7.6;;;5.3;;
38220;SDS011;24023;51.280;7.148;2023-09-12T06:05:06;6.3;;;5.7;;
38220;SDS011;24023;51.280;7.148;2023-09-12T06:10:08;6.3;;;5.7;;
38220;SDS011;24023;51.280;7.148;2023-09-12T06:15:07;7.5;;;5.5;;
38220;SDS011;24023;51.280;7.148;2023-09-12T06:20:08;7.5;;;5.5;;
38220;SDS011;24023;51.280;7.148;2023-09-12T06:25:06;7.5;;;5.5;;
38220;SDS011;24023;51.280;7.148;2023-09-12T06:30:09;6.2;;;5.4;;
38220;SDS011;24023;51.280;7.148;2023-09-12T06:35:06;6.2;;;5.4;;
38220;SDS011;24023;51.280;7.148;2023-09-12T06:40:07;7.6;;;5.9;;
38220;SDS011;24023;51.280;7.148;2023-09-12T06:45:09;7.6;;;5.9;;
38220;SDS011;24023;51.280;7.148;2023-09-12T06:50:07;6.1;;;5.5;;
38220;SDS011;24023;51.280;7.148;2023-09-12T06:55:05;6.1;;;5.5;;
38220;SDS011;24023;51.280;7.148;2023-09-12T07:00:11;6.1;;;5.5;;
38220;SDS011;24023;51.280;7.148;2023-09-12T07:05:06;5.6;;;4.2;;
38220;SDS011;24023;51.280;7.148;2023-09-12T07:10:07;5.6;;;4.2;;
38220;SDS011;24023;51.280;7.148;2023-09-12T07:15:07;4.9;;;4.2;;
38220;SDS011;24023;51.280;7.148;2023-09-12T07:20:11;4.9;;;4.2;;
38220;SDS011;24023;51.280;7.148;2023-09-12T07:25:06;4.9;;;4.2;;
38220;SDS011;24023;51.280;7.148;2023-09-12T07:30:09;5.5;;;4.1;;
38220;SDS011;24023;51.280;7.148;2023-09-12T07:35:05;7.7;;;6.7;;
38220;SDS011;24023;51.280;7.148;2023-09-12T07:40:10;7.7;;;6.7;;
38220;SDS011;24023;51.280;7.148;2023-09-12T07:45:09;5.8;;;5.2;;
38220;SDS011;24023;51.280;7.148;2023-09-12T07:50:07;5.8;;;5.2;;
38220;SDS011;24023;51.280;7.148;2023-09-12T07:55:06;5.8;;;5.2;;
38220;SDS011;24023;51.280;7.148;2023-09-12T08:00:13;5.3;;;4.8;;
38220;SDS011;24023;51.280;7.148;2023-09-12T08:05:06;5.3;;;4.8;;
38220;SDS011;24023;51.280;7.148;2023-09-12T08:10:07;5.4;;;4.4;;
38220;SDS011;24023;51.280;7.148;2023-09-12T08:15:07;5.4;;;4.4;;
38220;SDS011;24023;51.280;7.148;2023-09-12T08:20:10;5.4;;;4.4;;
38220;SDS011;24023;51.280;7.148;2023-09-12T08:25:06;6.2;;;5.1;;
38220;SDS011;24023;51.280;7.148;2023-09-12T08:30:09;6.2;;;5.1;;
38220;SDS011;24023;51.280;7.148;2023-09-12T08:35:05;5.3;;;4.8;;
38220;SDS011;24023;51.280;7.148;2023-09-12T08:40:09;5.3;;;4.8;;
38220;SDS011;24023;51.280;7.148;2023-09-12T08:45:12;5.3;;;4.8;;
38220;SDS011;24023;51.280;7.148;2023-09-12T08:50:08;4.2;;;3.6;;
38220;SDS011;24023;51.280;7.148;2023-09-12T08:55:06;4.2;;;3.6;;
38220;SDS011;24023;51.280;7.148;2023-09-12T09:00:11;5.1;;;3.4;;
38220;SDS011;24023;51.280;7.148;2023-09-12T09:05:07;5.1;;;3.4;;
38220;SDS011;24023;51.280;7.148;2023-09-12T09:10:09;3.7;;;3.0;;
38220;SDS011;24023;51.280;7.148;2023-09-12T09:15:23;3.7;;;3.0;;
38220;SDS011;24023;51.280;7.148;2023-09-12T09:20:09;3.7;;;3.0;;
38220;SDS011;24023;51.280;7.148;2023-09-12T09:25:09;4.4;;;3.4;;
38220;SDS011;24023;51.280;7.148;2023-09-12T09:30:10;3.6;;;3.0;;
38220;SDS011;24023;51.280;7.148;2023-09-12T09:35:06;3.6;;;3.0;;
38220;SDS011;24023;51.280;7.148;2023-09-12T09:40:08;4.1;;;3.7;;
38220;SDS011;24023;51.280;7.148;2023-09-12T09:45:09;4.1;;;3.7;;
38220;SDS011;24023;51.280;7.148;2023-09-12T09:50:07;5.5;;;4.2;;
38220;SDS011;24023;51.280;7.148;2023-09-12T09:55:06;5.5;;;4.2;;
38220;SDS011;24023;51.280;7.148;2023-09-12T10:00:15;5.5;;;4.2;;
38220;SDS011;24023;51.280;7.148;2023-09-12T10:05:06;3.7;;;3.4;;
38220;SDS011;24023;51.280;7.148;2023-09-12T10:10:07;3.7;;;3.4;;
38220;SDS011;24023;51.280;7.148;2023-09-12T10:15:07;3.7;;;3.4;;
38220;SDS011;24023;51.280;7.148;2023-09-12T10:20:11;4.1;;;3.3;;
38220;SDS011;24023;51.280;7.148;2023-09-12T10:25:06;4.1;;;3.3;;
38220;SDS011;24023;51.280;7.148;2023-09-12T10:30:09;4.9;;;3.3;;
38220;SDS011;24023;51.280;7.148;2023-09-12T10:35:06;4.9;;;3.3;;
38220;SDS011;24023;51.280;7.148;2023-09-12T10:40:08;4.1;;;3.3;;
38220;SDS011;24023;51.280;7.148;2023-09-12T10:45:09;4.1;;;3.3;;
38220;SDS011;24023;51.280;7.148;2023-09-12T10:50:07;5.1;;;4.1;;
38220;SDS011;24023;51.280;7.148;2023-09-12T10:55:05;4.3;;;2.5;;
38220;SDS011;24023;51.280;7.148;2023-09-12T11:00:12;4.3;;;2.5;;
38220;SDS011;24023;51.280;7.148;2023-09-12T11:05:06;4.3;;;2.5;;
38220;SDS011;24023;51.280;7.148;2023-09-12T11:10:23;3.2;;;2.7;;
38220;SDS011;24023;51.280;7.148;2023-09-12T11:15:07;5.5;;;3.4;;
38220;SDS011;24023;51.280;7.148;2023-09-12T11:20:10;5.5;;;3.4;;
38220;SDS011;24023;51.280;7.148;2023-09-12T11:25:15;5.5;;;3.4;;
38220;SDS011;24023;51.280;7.148;2023-09-12T11:30:08;4.0;;;3.6;;
38220;SDS011;24023;51.280;7.148;2023-09-12T11:35:06;4.0;;;3.6;;
38220;SDS011;24023;51.280;7.148;2023-09-12T11:40:15;4.0;;;3.6;;
38220;SDS011;24023;51.280;7.148;2023-09-12T11:45:09;4.8;;;4.4;;
38220;SDS011;24023;51.280;7.148;2023-09-12T11:50:07;4.8;;;4.4;;
38220;SDS011;24023;51.280;7.148;2023-09-12T11:55:06;4.8;;;4.3;;
38220;SDS011;24023;51.280;7.148;2023-09-12T12:00:13;4.8;;;4.3;;
38220;SDS011;24023;51.280;7.148;2023-09-12T12:05:06;4.8;;;4.3;;
38220;SDS011;24023;51.280;7.148;2023-09-12T12:10:07;5.9;;;4.4;;
38220;SDS011;24023;51.280;7.148;2023-09-12T12:15:09;5.9;;;4.4;;
38220;SDS011;24023;51.280;7.148;2023-09-12T12:20:10;5.3;;;4.8;;
38220;SDS011;24023;51.280;7.148;2023-09-12T12:25:06;5.3;;;4.8;;
38220;SDS011;24023;51.280;7.148;2023-09-12T12:30:10;5.3;;;4.8;;
38220;SDS011;24023;51.280;7.148;2023-09-12T12:35:05;5.1;;;4.1;;
38220;SDS011;24023;51.280;7.148;2023-09-12T12:40:11;5.1;;;4.1;;
38220;SDS011;24023;51.280;7.148;2023-09-12T12:45:12;8.0;;;5.4;;
38220;SDS011;24023;51.280;7.148;2023-09-12T12:50:08;8.0;;;5.4;;
38220;SDS011;24023;51.280;7.148;2023-09-12T12:55:06;6.0;;;4.7;;
38220;SDS011;24023;51.280;7.148;2023-09-12T13:00:12;6.0;;;4.7;;
38220;SDS011;24023;51.280;7.148;2023-09-12T13:05:19;6.0;;;4.7;;
38220;SDS011;24023;51.280;7.148;2023-09-12T13:10:08;5.9;;;4.5;;
38220;SDS011;24023;51.280;7.148;2023-09-12T13:15:10;5.9;;;4.5;;
38220;SDS011;24023;51.280;7.148;2023-09-12T13:20:09;5.4;;;4.9;;
38220;SDS011;24023;51.280;7.148;2023-09-12T13:25:08;5.4;;;4.9;;
38220;SDS011;24023;51.280;7.148;2023-09-12T13:30:08;5.4;;;4.9;;
38220;SDS011;24023;51.280;7.148;2023-09-12T13:35:08;4.8;;;4.3;;
38220;SDS011;24023;51.280;7.148;2023-09-12T13:40:10;4.8;;;4.3;;
38220;SDS011;24023;51.280;7.148;2023-09-12T13:45:08;4.9;;;4.5;;
38220;SDS011;24023;51.280;7.148;2023-09-12T13:50:07;4.8;;;4.4;;
38220;SDS011;24023;51.280;7.148;2023-09-12T13:55:06;4.8;;;4.4;;
38220;SDS011;24023;51.280;7.148;2023-09-12T14:00:13;5.8;;;4.5;;
38220;SDS011;24023;51.280;7.148;2023-09-12T14:05:06;5.8;;;4.5;;
38220;SDS011;24023;51.280;7.148;2023-09-12T14:10:08;5.6;;;4.6;;
38220;SDS011;24023;51.280;7.148;2023-09-12T14:15:07;5.6;;;4.6;;
38220;SDS011;24023;51.280;7.148;2023-09-12T14:20:08;10.2;;;4.5;;
38220;SDS011;24023;51.280;7.148;2023-09-12T14:25:06;4.5;;;4.1;;
38220;SDS011;24023;51.280;7.148;2023-09-12T14:30:11;4.5;;;4.1;;
38220;SDS011;24023;51.280;7.148;2023-09-12T14:35:06;4.5;;;4.1;;
38220;SDS011;24023;51.280;7.148;2023-09-12T14:40:08;4.7;;;4.2;;
38220;SDS011;24023;51.280;7.148;2023-09-12T14:45:10;4.7;;;4.2;;
38220;SDS011;24023;51.280;7.148;2023-09-12T14:50:07;6.5;;;5.9;;
38220;SDS011;24023;51.280;7.148;2023-09-12T14:55:06;5.2;;;4.1;;
38220;SDS011;24023;51.280;7.148;2023-09-12T15:00:11;5.2;;;4.1;;
38220;SDS011;24023;51.280;7.148;2023-09-12T15:05:05;5.2;;;4.1;;
38220;SDS011;24023;51.280;7.148;2023-09-12T15:10:07;4.3;;;3.9;;
38220;SDS011;24023;51.280;7.148;2023-09-12T15:15:07;4.3;;;3.9;;
38220;SDS011;24023;51.280;7.148;2023-09-12T15:20:07;4.4;;;3.8;;
38220;SDS011;24023;51.280;7.148;2023-09-12T15:25:06;4.4;;;3.8;;
38220;SDS011;24023;51.280;7.148;2023-09-12T15:30:08;4.4;;;3.8;;
38220;SDS011;24023;51.280;7.148;2023-09-12T15:35:06;4.3;;;3.9;;
38220;SDS011;24023;51.280;7.148;2023-09-12T15:40:07;4.3;;;3.9;;
38220;SDS011;24023;51.280;7.148;2023-09-12T15:45:10;4.2;;;3.8;;
38220;SDS011;24023;51.280;7.148;2023-09-12T15:50:07;4.2;;;3.8;;
38220;SDS011;24023;51.280;7.148;2023-09-12T15:55:06;4.2;;;3.8;;
38220;SDS011;24023;51.280;7.148;2023-09-12T16:00:13;5.0;;;4.4;;
38220;SDS011;24023;51.280;7.148;2023-09-12T16:05:05;5.0;;;4.4;;
38220;SDS011;24023;51.280;7.148;2023-09-12T16:10:08;4.6;;;4.0;;
38220;SDS011;24023;51.280;7.148;2023-09-12T16:15:09;4.6;;;4.0;;
38220;SDS011;24023;51.280;7.148;2023-09-12T16:20:10;4.6;;;4.0;;
38220;SDS011;24023;51.280;7.148;2023-09-12T16:25:09;4.3;;;3.9;;
38220;SDS011;24023;51.280;7.148;2023-09-12T16:30:12;4.3;;;3.9;;
38220;SDS011;24023;51.280;7.148;2023-09-12T16:35:06;5.5;;;4.3;;
38220;SDS011;24023;51.280;7.148;2023-09-12T16:40:08;5.5;;;4.3;;
38220;SDS011;24023;51.280;7.148;2023-09-12T16:45:09;4.4;;;4.0;;
38220;SDS011;24023;51.280;7.148;2023-09-12T16:50:07;4.4;;;4.0;;
38220;SDS011;24023;51.280;7.148;2023-09-12T16:55:05;4.4;;;4.0;;
38220;SDS011;24023;51.280;7.148;2023-09-12T17:00:11;5.4;;;4.7;;
38220;SDS011;24023;51.280;7.148;2023-09-12T17:05:05;5.4;;;4.7;;
38220;SDS011;24023;51.280;7.148;2023-09-12T17:10:08;5.6;;;5.0;;
38220;SDS011;24023;51.280;7.148;2023-09-12T17:15:07;5.6;;;5.0;;
38220;SDS011;24023;51.280;7.148;2023-09-12T17:20:07;5.6;;;5.0;;
38220;SDS011;24023;51.280;7.148;2023-09-12T17:25:06;6.9;;;5.4;;
38220;SDS011;24023;51.280;7.148;2023-09-12T17:30:10;6.9;;;5.4;;
38220;SDS011;24023;51.280;7.148;2023-09-12T17:35:06;6.4;;;5.8;;
38220;SDS011;24023;51.280;7.148;2023-09-12T17:40:07;8.9;;;8.0;;
38220;SDS011;24023;51.280;7.148;2023-09-12T17:45:09;8.9;;;8.0;;
38220;SDS011;24023;51.280;7.148;2023-09-12T17:50:08;8.2;;;6.7;;
38220;SDS011;24023;51.280;7.148;2023-09-12T17:55:05;8.2;;;6.7;;
38220;SDS011;24023;51.280;7.148;2023-09-12T18:00:12;10.3;;;9.2;;
38220;SDS011;24023;51.280;7.148;2023-09-12T18:05:08;10.3;;;9.2;;
38220;SDS011;24023;51.280;7.148;2023-09-12T18:10:07;9.9;;;8.9;;
38220;SDS011;24023;51.280;7.148;2023-09-12T18:15:09;9.9;;;8.9;;
38220;SDS011;24023;51.280;7.148;2023-09-12T18:20:07;9.9;;;8.9;;
38220;SDS011;24023;51.280;7.148;2023-09-12T18:25:06;9.9;;;8.9;;
38220;SDS011;24023;51.280;7.148;2023-09-12T18:30:10;9.9;;;8.9;;
38220;SDS011;24023;51.280;7.148;2023-09-12T18:35:06;10.2;;;9.2;;
38220;SDS011;24023;51.280;7.148;2023-09-12T18:40:08;10.2;;;9.2;;
38220;SDS011;24023;51.280;7.148;2023-09-12T18:45:09;11.1;;;10.1;;
38220;SDS011;24023;51.280;7.148;2023-09-12T18:50:07;11.1;;;10.1;;
38220;SDS011;24023;51.280;7.148;2023-09-12T18:55:06;11.1;;;10.1;;
38220;SDS011;24023;51.280;7.148;2023-09-12T19:00:16;10.9;;;9.8;;
38220;SDS011;24023;51.280;7.148;2023-09-12T19:05:05;10.9;;;9.8;;
38220;SDS011;24023;51.280;7.148;2023-09-12T19:10:07;11.7;;;10.2;;
38220;SDS011;24023;51.280;7.148;2023-09-12T19:15:07;11.7;;;10.2;;
38220;SDS011;24023;51.280;7.148;2023-09-12T19:20:08;11.7;;;10.2;;
38220;SDS011;24023;51.280;7.148;2023-09-12T19:25:08;11.5;;;10.4;;
38220;SDS011;24023;51.280;7.148;2023-09-12T19:30:11;11.5;;;10.4;;
38220;SDS011;24023;51.280;7.148;2023-09-12T19:35:06;12.6;;;11.4;;
38220;SDS011;24023;51.280;7.148;2023-09-12T19:40:07;12.6;;;11.4;;
38220;SDS011;24023;51.280;7.148;2023-09-12T19:45:08;12.6;;;11.4;;
38220;SDS011;24023;51.280;7.148;2023-09-12T19:50:07;12.3;;;11.2;;
38220;SDS011;24023;51.280;7.148;2023-09-12T19:55:05;12.3;;;11.2;;
38220;SDS011;24023;51.280;7.148;2023-09-12T20:00:11;12.7;;;11.4;;
38220;SDS011;24023;51.280;7.148;2023-09-12T20:05:06;12.7;;;11.4;;
38220;SDS011;24023;51.280;7.148;2023-09-12T20:10:07;11.8;;;10.7;;
38220;SDS011;24023;51.280;7.148;2023-09-12T20:15:07;11.8;;;10.7;;
38220;SDS011;24023;51.280;7.148;2023-09-12T20:20:07;13.5;;;11.2;;
38220;SDS011;24023;51.280;7.148;2023-09-12T20:25:06;13.5;;;11.2;;
38220;SDS011;24023;51.280;7.148;2023-09-12T20:30:08;12.8;;;11.5;;
38220;SDS011;24023;51.280;7.148;2023-09-12T20:35:06;12.8;;;11.5;;
38220;SDS011;24023;51.280;7.148;2023-09-12T20:40:12;11.5;;;10.3;;
38220;SDS011;24023;51.280;7.148;2023-09-12T20:45:09;11.5;;;10.3;;
38220;SDS011;24023;51.280;7.148;2023-09-12T20:50:10;11.5;;;10.3;;
38220;SDS011;24023;51.280;7.148;2023-09-12T20:55:06;11.4;;;10.2;;
38220;SDS011;24023;51.280;7.148;2023-09-12T21:00:11;11.4;;;10.2;;
38220;SDS011;24023;51.280;7.148;2023-09-12T21:05:05;12.7;;;10.4;;
38220;SDS011;24023;51.280;7.148;2023-09-12T21:10:07;12.7;;;10.4;;
38220;SDS011;24023;51.280;7.148;2023-09-12T21:15:09;12.7;;;10.4;;
38220;SDS011;24023;51.280;7.148;2023-09-12T21:20:08;13.3;;;12.1;;
38220;SDS011;24023;51.280;7.148;2023-09-12T21:25:05;13.3;;;12.1;;
38220;SDS011;24023;51.280;7.148;2023-09-12T21:30:09;14.2;;;12.9;;
38220;SDS011;24023;51.280;7.148;2023-09-12T21:35:09;14.2;;;12.9;;
38220;SDS011;24023;51.280;7.148;2023-09-12T21:40:08;13.7;;;12.4;;
38220;SDS011;24023;51.280;7.148;2023-09-12T21:45:12;13.7;;;12.4;;
38220;SDS011;24023;51.280;7.148;2023-09-12T21:50:07;13.7;;;12.4;;
38220;SDS011;24023;51.280;7.148;2023-09-12T21:55:06;14.8;;;13.5;;
38220;SDS011;24023;51.280;7.148;2023-09-12T22:00:23;14.8;;;13.5;;
38220;SDS011;24023;51.280;7.148;2023-09-12T22:05:07;15.6;;;14.1;;
38220;SDS011;24023;51.280;7.148;2023-09-12T22:10:07;15.6;;;14.1;;
38220;SDS011;24023;51.280;7.148;2023-09-12T22:15:14;15.6;;;14.1;;
38220;SDS011;24023;51.280;7.148;2023-09-12T22:20:12;18.0;;;15.9;;
38220;SDS011;24023;51.280;7.148;2023-09-12T22:25:06;18.0;;;15.9;;
38220;SDS011;24023;51.280;7.148;2023-09-12T22:30:09;21.4;;;19.1;;
38220;SDS011;24023;51.280;7.148;2023-09-12T22:35:06;21.4;;;19.1;;
38220;SDS011;24023;51.280;7.148;2023-09-12T22:40:09;23.1;;;20.7;;
38220;SDS011;24023;51.280;7.148;2023-09-12T22:45:09;23.1;;;20.7;;
38220;SDS011;24023;51.280;7.148;2023-09-12T22:50:07;21.3;;;19.1;;
38220;SDS011;24023;51.280;7.148;2023-09-12T22:55:07;21.3;;;19.1;;
38220;SDS011;24023;51.280;7.148;2023-09-12T23:00:15;19.2;;;17.3;;
38220;SDS011;24023;51.280;7.148;2023-09-12T23:05:05;19.2;;;17.3;;
38220;SDS011;24023;51.280;7.148;2023-09-12T23:10:07;19.2;;;17.3;;
38220;SDS011;24023;51.280;7.148;2023-09-12T23:15:07;19.2;;;17.3;;
38220;SDS011;24023;51.280;7.148;2023-09-12T23:20:07;21.2;;;19.0;;
38220;SDS011;24023;51.280;7.148;2023-09-12T23:25:08;21.2;;;19.0;;
38220;SDS011;24023;51.280;7.148;2023-09-12T23:30:09;18.8;;;17.0;;
38220;SDS011;24023;51.280;7.148;2023-09-12T23:35:06;18.8;;;17.0;;
38220;SDS011;24023;51.280;7.148;2023-09-12T23:40:08;18.0;;;16.2;;
38220;SDS011;24023;51.280;7.148;2023-09-12T23:45:09;18.0;;;16.2;;
38220;SDS011;24023;51.280;7.148;2023-09-12T23:50:07;15.3;;;13.9;;
38220;SDS011;24023;51.280;7.148;2023-09-12T23:55:06;15.3;;;13.9;;
